Time;durP1;ratioP1;P1;durP2;ratioP2;P2;SDS_P1;SDS_P2;PMS_P1;PMS_P2;Temp;Humidity;BMP_temperature;BMP_pressure;BME280_temperature;BME280_humidity;BME280_pressure;Samples;Min_cycle;Max_cycle;Signal;HPM_P1;HPM_P2
2023/05/19 00:01:19;;;;;;;7.40;2.03;;;;;;;13.23;51.50;100533.81;5015663;28;20496;-94
2023/05/19 00:03:52;;;;;;;7.20;2.05;;;;;;;13.21;51.58;100543.75;5011515;28;20546;-94
2023/05/19 00:06:24;;;;;;;5.25;1.90;;;;;;;13.19;51.61;100535.88;5000706;28;20045;-93
2023/05/19 00:09:04;;;;;;;5.63;1.90;;;;;;;13.23;51.56;100534.66;5016139;28;20051;-94
2023/05/19 00:11:34;;;;;;;7.13;2.17;;;;;;;13.14;51.77;100546.13;5016729;28;20060;-94
2023/05/19 00:14:04;;;;;;;6.40;2.13;;;;;;;13.19;51.42;100535.88;5002830;28;20128;-94
2023/05/19 00:16:33;;;;;;;5.22;2.08;;;;;;;13.12;51.71;100531.22;4990973;28;20044;-93
2023/05/19 00:19:01;;;;;;;6.82;1.95;;;;;;;13.14;51.84;100524.78;4996029;28;20041;-94
2023/05/19 00:21:30;;;;;;;5.18;1.77;;;;;;;13.17;51.58;100531.66;4997079;28;20064;-92
2023/05/19 00:23:57;;;;;;;8.52;2.55;;;;;;;13.20;51.50;100534.06;5000033;28;20097;-93
2023/05/19 00:26:25;;;;;;;9.50;2.10;;;;;;;13.12;51.48;100523.22;4998477;28;20415;-94
2023/05/19 00:29:00;;;;;;;4.50;1.50;;;;;;;13.04;51.77;100534.56;4998359;28;20139;-93
2023/05/19 00:31:27;;;;;;;5.18;1.60;;;;;;;13.01;52.07;100526.84;5014993;28;20222;-94
2023/05/19 00:33:54;;;;;;;7.60;2.03;;;;;;;13.05;51.97;100522.91;4999977;28;20507;-93
2023/05/19 00:36:21;;;;;;;3.58;1.60;;;;;;;13.06;51.86;100521.97;4996533;28;20043;-93
2023/05/19 00:38:49;;;;;;;4.70;1.90;;;;;;;12.97;52.24;100515.59;5004619;28;20116;-93
2023/05/19 00:41:17;;;;;;;3.50;2.15;;;;;;;13.06;51.80;100518.44;5010126;28;20041;-94
2023/05/19 00:43:44;;;;;;;4.63;1.85;;;;;;;13.11;51.68;100522.41;4997033;28;20103;-94
2023/05/19 00:46:11;;;;;;;4.28;1.95;;;;;;;13.15;51.85;100518.50;5004094;28;20041;-93
2023/05/19 00:48:38;;;;;;;4.78;2.20;;;;;;;13.12;51.71;100518.75;4989664;28;20052;-94
2023/05/19 00:51:05;;;;;;;4.93;1.80;;;;;;;13.09;51.82;100512.84;4980578;28;20073;-94
2023/05/19 00:53:33;;;;;;;4.28;1.80;;;;;;;13.05;51.92;100517.59;4992812;28;20071;-93
2023/05/19 00:56:01;;;;;;;9.52;2.30;;;;;;;13.08;51.77;100517.34;5003884;28;20124;-94
2023/05/19 00:58:31;;;;;;;3.90;1.92;;;;;;;13.11;51.83;100521.56;4996201;28;20053;-94
2023/05/19 01:01:01;;;;;;;3.70;1.75;;;;;;;13.04;51.60;100519.41;4996424;28;20040;-93
2023/05/19 01:03:31;;;;;;;3.65;1.50;;;;;;;13.06;51.87;100524.63;5000375;28;20400;-94
2023/05/19 01:06:03;;;;;;;8.00;2.45;;;;;;;13.04;51.85;100532.75;5001194;28;20045;-95
2023/05/19 01:08:33;;;;;;;6.93;2.03;;;;;;;13.06;51.82;100521.13;4998397;28;20049;-94
2023/05/19 01:11:01;;;;;;;6.97;1.75;;;;;;;12.98;52.10;100522.63;4998099;28;20131;-94
2023/05/19 01:13:28;;;;;;;4.97;1.60;;;;;;;13.03;52.06;100520.41;5006771;28;20052;-93
2023/05/19 01:16:06;;;;;;;7.68;1.70;;;;;;;12.99;52.15;100524.31;5000830;28;20045;-93
2023/05/19 01:18:54;;;;;;;7.15;2.00;;;;;;;13.04;52.01;100524.75;5013043;28;20049;-94
2023/05/19 01:22:02;;;;;;;10.07;2.00;;;;;;;12.96;52.03;100523.75;4995292;28;20048;-94
2023/05/19 01:24:55;;;;;;;4.70;1.85;;;;;;;12.93;52.39;100513.34;5023003;28;20053;-93
2023/05/19 01:27:46;;;;;;;4.57;1.60;;;;;;;12.93;52.33;100516.84;4994165;28;20051;-93
2023/05/19 01:30:36;;;;;;;7.18;2.38;;;;;;;12.80;52.76;100517.09;5012946;28;20065;-95
2023/05/19 01:33:06;;;;;;;6.93;2.15;;;;;;;12.92;52.33;100507.16;5000178;28;20059;-93
2023/05/19 01:35:36;;;;;;;10.82;2.55;;;;;;;12.89;52.29;100515.44;5014274;28;20049;-95
2023/05/19 01:38:04;;;;;;;6.03;1.90;;;;;;;12.92;52.08;100515.16;5018892;28;20045;-94
2023/05/19 01:40:32;;;;;;;7.85;1.90;;;;;;;12.97;52.11;100506.75;5016154;28;20036;-95
2023/05/19 01:43:07;;;;;;;8.38;1.83;;;;;;;12.87;52.25;100508.53;5008394;28;20040;-94
2023/05/19 01:45:34;;;;;;;3.67;1.90;;;;;;;12.89;52.44;100510.09;4986314;28;20525;-93
2023/05/19 01:48:03;;;;;;;4.82;1.88;;;;;;;12.87;52.36;100521.88;5003514;28;20048;-95
2023/05/19 01:50:31;;;;;;;8.80;2.00;;;;;;;12.81;52.38;100507.25;5007053;28;20369;-92
2023/05/19 01:53:00;;;;;;;4.70;2.25;;;;;;;12.81;52.40;100505.44;4998875;28;20096;-93
2023/05/19 01:55:27;;;;;;;5.57;2.28;;;;;;;12.72;52.47;100508.91;4999898;28;20060;-92
2023/05/19 01:58:12;;;;;;;6.38;1.85;;;;;;;12.69;52.71;100514.50;4996615;28;20080;-92
2023/05/19 02:00:53;;;;;;;4.90;1.98;;;;;;;12.70;53.06;100516.19;4991235;28;20120;-93
2023/05/19 02:03:28;;;;;;;8.05;1.90;;;;;;;12.52;53.37;100515.97;5026686;28;20076;-93
2023/05/19 02:06:11;;;;;;;5.10;1.80;;;;;;;12.60;53.00;100515.31;5018102;28;20045;-94
2023/05/19 02:08:45;;;;;;;8.27;2.22;;;;;;;12.70;52.91;100524.19;5029956;28;20045;-93
2023/05/19 02:11:20;;;;;;;8.38;2.35;;;;;;;12.53;53.17;100530.13;4999795;28;20061;-92
2023/05/19 02:13:50;;;;;;;3.60;1.80;;;;;;;12.60;52.76;100520.63;5012057;28;20045;-92
2023/05/19 02:16:17;;;;;;;7.28;1.65;;;;;;;12.56;53.06;100517.38;5001023;28;20415;-93
2023/05/19 02:18:45;;;;;;;4.03;2.50;;;;;;;12.51;53.12;100521.41;4998238;28;20095;-93
2023/05/19 02:21:12;;;;;;;4.97;2.72;;;;;;;12.53;53.05;100525.63;4996288;28;20059;-94
2023/05/19 02:23:40;;;;;;;2.92;2.10;;;;;;;12.56;53.16;100528.03;4999406;28;20573;-92
2023/05/19 02:26:07;;;;;;;8.63;1.90;;;;;;;12.61;52.97;100524.97;4999975;28;20500;-93
2023/05/19 02:28:35;;;;;;;7.25;1.85;;;;;;;12.63;53.08;100520.34;5007104;28;20046;-92
2023/05/19 02:31:04;;;;;;;4.00;1.88;;;;;;;12.66;53.11;100528.09;4978736;28;20488;-93
2023/05/19 02:33:31;;;;;;;7.03;2.50;;;;;;;12.68;52.89;100526.13;5000030;28;20118;-93
2023/05/19 02:35:58;;;;;;;3.65;1.70;;;;;;;12.62;53.44;100534.66;5004066;28;20045;-93
2023/05/19 02:38:25;;;;;;;7.20;2.13;;;;;;;12.71;52.87;100519.69;5004854;28;20041;-92
2023/05/19 02:40:52;;;;;;;4.30;1.70;;;;;;;12.76;52.78;100518.31;4990643;28;20107;-91
2023/05/19 02:43:19;;;;;;;4.85;1.63;;;;;;;12.74;53.36;100517.59;5000607;28;20125;-91
2023/05/19 02:45:46;;;;;;;5.68;2.10;;;;;;;12.79;53.19;100515.38;4981428;28;20056;-93
2023/05/19 02:48:13;;;;;;;6.55;1.67;;;;;;;12.78;53.17;100512.88;4993750;28;20499;-92
2023/05/19 02:50:40;;;;;;;3.00;1.60;;;;;;;12.67;53.74;100513.81;4997291;28;20069;-94
2023/05/19 02:53:07;;;;;;;6.43;1.80;;;;;;;12.69;54.32;100518.97;4981963;28;20127;-93
2023/05/19 02:55:34;;;;;;;7.13;1.98;;;;;;;12.76;53.26;100518.31;4992284;28;20049;-94
2023/05/19 02:58:01;;;;;;;11.82;2.05;;;;;;;12.80;53.31;100516.25;4995637;28;20041;-93
2023/05/19 03:00:28;;;;;;;3.50;2.03;;;;;;;12.77;53.14;100520.03;4996247;28;20099;-93
2023/05/19 03:02:55;;;;;;;7.63;1.67;;;;;;;12.81;53.24;100521.44;4980710;28;20048;-93
2023/05/19 03:05:22;;;;;;;3.60;1.50;;;;;;;12.79;53.22;100515.38;4994941;28;20091;-93
2023/05/19 03:07:49;;;;;;;8.05;1.77;;;;;;;12.85;53.25;100515.81;4996081;28;20053;-92
2023/05/19 03:10:16;;;;;;;8.52;2.30;;;;;;;12.82;53.53;100515.13;4997713;28;20109;-92
2023/05/19 03:12:43;;;;;;;5.75;1.90;;;;;;;12.86;52.98;100521.03;4986920;28;20040;-93
2023/05/19 03:15:11;;;;;;;7.47;1.85;;;;;;;12.82;52.89;100516.94;4984257;28;22247;-94
2023/05/19 03:17:39;;;;;;;4.13;2.00;;;;;;;12.79;53.50;100503.88;4990786;28;20124;-94
2023/05/19 03:20:07;;;;;;;7.78;2.13;;;;;;;12.78;53.40;100516.38;4997126;28;20041;-84
2023/05/19 03:22:34;;;;;;;5.53;2.08;;;;;;;12.85;53.29;100513.16;4993832;28;20390;-84
2023/05/19 03:25:02;;;;;;;3.53;1.70;;;;;;;12.79;53.93;100514.53;5009963;28;20076;-84
2023/05/19 03:27:29;;;;;;;5.18;2.47;;;;;;;12.73;53.80;100513.25;5025358;28;20500;-85
2023/05/19 03:29:55;;;;;;;4.10;1.60;;;;;;;12.75;53.66;100511.31;4990160;28;20052;-84
2023/05/19 03:32:22;;;;;;;3.58;1.63;;;;;;;12.80;53.68;100511.75;5008144;28;20041;-84
2023/05/19 03:34:49;;;;;;;6.28;1.80;;;;;;;12.82;53.28;100508.94;5024217;28;20491;-84
2023/05/19 03:37:16;;;;;;;8.73;1.70;;;;;;;12.77;53.78;100508.50;5010837;28;20135;-85
2023/05/19 03:39:44;;;;;;;4.68;2.15;;;;;;;12.77;53.67;100512.03;4996951;28;20041;-84
2023/05/19 03:42:10;;;;;;;5.82;1.60;;;;;;;12.82;53.44;100516.94;5002381;28;20048;-84
2023/05/19 03:44:37;;;;;;;6.13;2.10;;;;;;;12.78;53.46;100507.53;5031989;28;20126;-84
2023/05/19 03:47:04;;;;;;;5.00;1.90;;;;;;;12.81;53.40;100508.09;4995751;28;20068;-84
2023/05/19 03:50:01;;;;;;;1.70;1.60;;;;;;;12.76;53.48;100509.47;5022968;28;20193;-84
2023/05/19 03:52:54;;;;;;;4.95;1.98;;;;;;;12.74;53.63;100514.94;4994997;28;20047;-84
2023/05/19 03:55:28;;;;;;;8.25;2.15;;;;;;;12.69;53.23;100505.66;4995707;28;20122;-84
2023/05/19 03:57:55;;;;;;;5.97;1.98;;;;;;;12.78;53.30;100505.72;5009733;28;20047;-84
2023/05/19 04:00:22;;;;;;;6.45;1.88;;;;;;;12.75;53.74;100513.13;5003406;28;20114;-84
2023/05/19 04:02:50;;;;;;;7.13;1.98;;;;;;;12.75;53.19;100515.81;5005567;28;20056;-84
2023/05/19 04:05:16;;;;;;;6.60;2.15;;;;;;;12.73;53.25;100521.25;5007140;28;20114;-84
2023/05/19 04:07:45;;;;;;;7.13;1.80;;;;;;;12.74;53.35;100517.59;5026539;28;20037;-84
2023/05/19 04:10:12;;;;;;;8.23;2.53;;;;;;;12.77;53.36;100522.69;5009047;28;20132;-84
2023/05/19 04:12:39;;;;;;;3.58;1.75;;;;;;;12.71;54.04;100517.88;4997892;28;20065;-83
2023/05/19 04:15:10;;;;;;;5.32;2.10;;;;;;;12.78;53.36;100520.84;5028552;28;20060;-84
2023/05/19 04:17:37;;;;;;;4.72;1.77;;;;;;;12.71;53.94;100531.19;5012562;28;20044;-84
2023/05/19 04:20:07;;;;;;;3.47;1.40;;;;;;;12.71;54.06;100528.53;5010790;28;20864;-84
2023/05/19 04:22:34;;;;;;;4.20;1.90;;;;;;;12.80;53.41;100525.06;5028325;28;20469;-84
2023/05/19 04:25:02;;;;;;;7.78;1.85;;;;;;;12.77;53.79;100528.03;5012960;28;20099;-84
2023/05/19 04:27:30;;;;;;;6.20;2.40;;;;;;;12.74;54.43;100532.75;5028148;28;20045;-84
2023/05/19 04:29:58;;;;;;;4.15;1.85;;;;;;;12.81;53.44;100529.41;5010576;28;20049;-84
2023/05/19 04:32:25;;;;;;;5.20;2.08;;;;;;;12.80;53.21;100522.41;5026866;28;20059;-84
2023/05/19 04:34:53;;;;;;;3.80;1.77;;;;;;;12.84;53.03;100530.13;5006040;28;20164;-84
2023/05/19 04:37:24;;;;;;;6.15;2.75;;;;;;;12.82;53.35;100527.59;5017668;28;20048;-84
2023/05/19 04:39:51;;;;;;;3.97;1.75;;;;;;;12.82;53.24;100520.47;5015043;28;20436;-84
2023/05/19 04:42:21;;;;;;;4.70;1.80;;;;;;;12.84;53.14;100525.66;5026474;28;20744;-84
2023/05/19 04:44:50;;;;;;;4.13;1.80;;;;;;;12.85;53.18;100523.81;5023797;28;20103;-84
2023/05/19 04:47:20;;;;;;;7.30;2.50;;;;;;;12.85;53.53;100532.69;5026579;28;25951;-84
2023/05/19 04:49:47;;;;;;;6.95;2.10;;;;;;;12.82;53.67;100532.94;5013990;28;20049;-84
2023/05/19 04:52:14;;;;;;;7.00;2.28;;;;;;;12.89;53.24;100530.59;5026436;28;20519;-84
2023/05/19 04:54:41;;;;;;;7.63;2.28;;;;;;;12.89;53.27;100533.25;5008346;28;20045;-85
2023/05/19 04:57:11;;;;;;;5.43;2.15;;;;;;;12.93;53.18;100538.19;5028180;28;20098;-84
2023/05/19 04:59:39;;;;;;;7.53;2.00;;;;;;;12.92;53.17;100533.81;5008970;28;20047;-84
2023/05/19 05:02:07;;;;;;;6.65;2.40;;;;;;;12.98;53.13;100538.63;4994223;28;20136;-84
2023/05/19 05:04:36;;;;;;;4.60;2.03;;;;;;;12.98;53.26;100541.28;5027641;28;20051;-84
2023/05/19 05:07:03;;;;;;;6.70;2.08;;;;;;;12.98;53.20;100538.63;5023539;28;20471;-84
2023/05/19 05:09:29;;;;;;;4.43;2.15;;;;;;;13.04;53.21;100532.75;4986391;28;20624;-84
2023/05/19 05:11:58;;;;;;;5.30;2.00;;;;;;;13.04;53.38;100535.41;5020953;28;20076;-84
2023/05/19 05:14:26;;;;;;;4.88;2.30;;;;;;;13.07;53.68;100528.13;5016465;28;20037;-84
2023/05/19 05:16:53;;;;;;;5.00;2.00;;;;;;;13.10;53.60;100527.84;5006822;28;20049;-84
2023/05/19 05:19:22;;;;;;;6.25;2.50;;;;;;;13.10;53.05;100518.06;4976638;28;20059;-84
2023/05/19 05:21:50;;;;;;;6.47;1.67;;;;;;;13.05;53.37;100522.91;5013064;28;20511;-84
2023/05/19 05:24:18;;;;;;;4.50;1.92;;;;;;;13.14;52.92;100518.63;5027564;28;20621;-84
2023/05/19 05:26:50;;;;;;;11.55;2.90;;;;;;;13.09;53.04;100523.50;5011938;28;20045;-85
2023/05/19 05:29:16;;;;;;;4.57;1.73;;;;;;;13.14;53.33;100530.13;5018129;28;20057;-84
2023/05/19 05:31:43;;;;;;;7.70;1.98;;;;;;;13.17;53.06;100521.00;5008981;28;20121;-84
2023/05/19 05:34:10;;;;;;;3.72;2.08;;;;;;;13.14;53.50;100523.94;5004094;28;20041;-85
2023/05/19 05:36:37;;;;;;;5.47;2.40;;;;;;;13.20;53.09;100526.06;5027822;28;20083;-85
2023/05/19 05:39:04;;;;;;;7.30;2.65;;;;;;;13.19;53.28;100524.38;5011552;28;20040;-85
2023/05/19 05:41:34;;;;;;;6.40;2.30;;;;;;;13.31;53.03;100523.34;5017857;28;20049;-85
2023/05/19 05:44:07;;;;;;;4.80;1.85;;;;;;;13.30;53.00;100515.47;4992477;28;20492;-85
2023/05/19 05:46:34;;;;;;;5.28;2.25;;;;;;;13.33;53.19;100524.03;4978398;28;20448;-85
2023/05/19 05:49:01;;;;;;;6.45;2.55;;;;;;;13.43;53.05;100521.38;5007456;28;20049;-86
2023/05/19 05:51:28;;;;;;;6.13;2.28;;;;;;;13.52;53.37;100517.06;5023874;28;20139;-84
2023/05/19 05:53:56;;;;;;;5.95;2.20;;;;;;;13.52;53.04;100514.38;5025676;28;20099;-84
2023/05/19 05:56:32;;;;;;;6.40;2.00;;;;;;;13.53;52.89;100518.72;5026929;28;20104;-85
2023/05/19 05:59:00;;;;;;;5.05;2.33;;;;;;;13.51;53.43;100520.69;5004484;28;20049;-85
2023/05/19 06:01:29;;;;;;;7.50;2.33;;;;;;;13.56;52.97;100523.78;5018522;28;20040;-85
2023/05/19 06:03:56;;;;;;;7.03;1.88;;;;;;;13.61;53.16;100518.88;5009512;28;20041;-85
2023/05/19 06:06:23;;;;;;;4.57;2.22;;;;;;;13.67;53.42;100516.50;4989332;28;20073;-85
2023/05/19 06:08:51;;;;;;;4.28;2.13;;;;;;;13.71;53.29;100514.38;5007026;28;20049;-84
2023/05/19 06:11:20;;;;;;;7.03;2.20;;;;;;;13.64;53.68;100510.63;5009685;28;20041;-84
2023/05/19 06:13:47;;;;;;;6.68;2.10;;;;;;;13.68;53.48;100512.00;5008025;28;20412;-85
2023/05/19 06:16:26;;;;;;;10.70;3.65;;;;;;;13.63;53.55;100517.75;5010240;28;20469;-85
2023/05/19 06:18:53;;;;;;;8.45;2.10;;;;;;;13.64;53.35;100513.28;5008867;28;20163;-85
2023/05/19 06:21:20;;;;;;;4.47;2.15;;;;;;;13.68;53.46;100517.34;5026884;28;20090;-85
2023/05/19 06:23:47;;;;;;;7.05;2.50;;;;;;;13.65;53.65;100515.78;5026025;28;20051;-84
2023/05/19 06:26:14;;;;;;;12.45;2.67;;;;;;;13.77;53.46;100510.34;4992146;28;20040;-84
2023/05/19 06:28:41;;;;;;;6.03;2.28;;;;;;;13.76;53.49;100505.97;5024612;28;20747;-85
2023/05/19 06:31:08;;;;;;;7.03;2.38;;;;;;;13.76;52.95;100509.47;5011380;28;20053;-84
2023/05/19 06:33:55;;;;;;;8.35;2.50;;;;;;;13.84;53.69;100522.13;5012796;28;20528;-84
2023/05/19 06:36:22;;;;;;;5.95;1.83;;;;;;;13.79;53.06;100508.34;5043065;28;20450;-84
2023/05/19 06:38:51;;;;;;;11.50;2.63;;;;;;;13.79;53.01;100516.38;5010454;28;20480;-84
2023/05/19 06:41:20;;;;;;;6.50;2.28;;;;;;;13.83;53.61;100510.59;5006486;28;20044;-85
2023/05/19 06:43:48;;;;;;;5.18;2.20;;;;;;;13.86;53.52;100510.31;4987639;28;20048;-84
2023/05/19 06:46:16;;;;;;;7.55;3.47;;;;;;;13.92;53.39;100516.94;5004872;28;20041;-84
2023/05/19 06:48:43;;;;;;;8.68;2.35;;;;;;;13.88;53.05;100512.88;5026143;28;20057;-84
2023/05/19 06:51:10;;;;;;;5.82;2.10;;;;;;;13.89;53.14;100525.22;5020530;28;20131;-84
2023/05/19 06:53:39;;;;;;;5.35;2.10;;;;;;;13.90;53.42;100505.56;5023049;28;20045;-84
2023/05/19 06:56:08;;;;;;;3.63;2.20;;;;;;;13.96;53.62;100510.31;5006658;28;20423;-84
2023/05/19 06:58:38;;;;;;;3.78;1.90;;;;;;;13.99;53.40;100504.72;5010393;28;20528;-84
2023/05/19 07:01:05;;;;;;;7.07;2.65;;;;;;;13.96;53.70;100510.31;5007060;28;20103;-85
2023/05/19 07:03:38;;;;;;;6.13;1.85;;;;;;;13.97;53.13;100514.69;5012519;28;20049;-85
2023/05/19 07:06:07;;;;;;;8.32;2.28;;;;;;;13.95;53.35;100502.47;5025847;28;20044;-85
2023/05/19 07:08:36;;;;;;;4.50;2.10;;;;;;;13.99;53.77;100509.19;4996430;28;20107;-84
2023/05/19 07:11:06;;;;;;;9.18;2.53;;;;;;;13.95;53.30;100505.97;4992573;28;20037;-84
2023/05/19 07:13:33;;;;;;;6.45;2.50;;;;;;;14.04;53.32;100505.16;5008820;28;20099;-85
2023/05/19 07:16:00;;;;;;;6.68;2.42;;;;;;;14.01;53.40;100499.22;4995756;28;20056;-83
2023/05/19 07:18:30;;;;;;;6.13;2.30;;;;;;;14.02;53.38;100504.44;5041462;28;20053;-84
2023/05/19 07:20:57;;;;;;;4.60;2.03;;;;;;;13.99;53.92;100499.38;4996564;28;20041;-83
2023/05/19 07:23:24;;;;;;;8.52;2.47;;;;;;;14.05;53.44;100489.97;5010837;28;20048;-82
2023/05/19 07:25:57;;;;;;;2.88;1.90;;;;;;;14.08;53.72;100497.69;5022206;28;20056;-82
2023/05/19 07:28:24;;;;;;;5.82;2.17;;;;;;;14.06;53.54;100502.31;5021847;28;20041;-82
2023/05/19 07:30:51;;;;;;;8.25;2.47;;;;;;;14.10;53.30;100495.72;5026516;28;20128;-84
2023/05/19 07:33:18;;;;;;;5.68;2.40;;;;;;;14.18;53.95;100492.34;4998016;28;20045;-83
2023/05/19 07:35:45;;;;;;;7.10;2.38;;;;;;;14.18;53.34;100487.81;5025671;28;20041;-85
2023/05/19 07:38:12;;;;;;;4.80;2.60;;;;;;;14.22;53.25;100486.56;5025769;28;20056;-85
2023/05/19 07:40:39;;;;;;;7.78;2.42;;;;;;;14.27;53.40;100483.44;5024216;28;20128;-84
2023/05/19 07:43:05;;;;;;;7.57;2.28;;;;;;;14.33;52.92;100478.38;5028830;28;20492;-85
2023/05/19 07:45:32;;;;;;;8.60;2.25;;;;;;;14.30;52.85;100476.00;4976267;28;20498;-83
2023/05/19 07:47:59;;;;;;;5.82;1.98;;;;;;;14.34;53.74;100480.06;5025259;28;20038;-83
2023/05/19 07:50:26;;;;;;;7.18;2.53;;;;;;;14.37;52.55;100468.22;5018672;28;20087;-84
2023/05/19 07:52:53;;;;;;;6.43;2.30;;;;;;;14.29;52.91;100481.47;5010481;28;20124;-83
2023/05/19 07:55:21;;;;;;;8.65;2.40;;;;;;;14.32;52.70;100476.72;5013355;28;20053;-82
2023/05/19 07:57:49;;;;;;;8.73;2.45;;;;;;;14.33;52.66;100481.06;5026636;28;20174;-83
2023/05/19 08:00:16;;;;;;;9.82;2.80;;;;;;;14.34;52.42;100472.03;5012320;28;20045;-83
2023/05/19 08:02:43;;;;;;;6.70;2.35;;;;;;;14.37;52.91;100470.91;5023301;28;20049;-84
2023/05/19 08:05:10;;;;;;;9.43;2.45;;;;;;;14.36;52.85;100466.56;5020220;28;20510;-85
2023/05/19 08:07:37;;;;;;;11.75;2.67;;;;;;;14.38;52.71;100469.09;5043410;28;20598;-84
2023/05/19 08:10:04;;;;;;;4.55;1.90;;;;;;;14.48;52.46;100453.88;5024665;28;20048;-85
2023/05/19 08:12:31;;;;;;;6.13;1.98;;;;;;;14.56;52.53;100464.72;5028879;28;20760;-85
2023/05/19 08:14:58;;;;;;;8.05;2.40;;;;;;;14.61;52.89;100462.44;5015322;28;20036;-88
2023/05/19 08:17:27;;;;;;;6.45;2.63;;;;;;;14.58;52.15;100465.41;5007073;28;20049;-84
2023/05/19 08:19:54;;;;;;;5.30;2.50;;;;;;;14.57;52.11;100468.22;5013173;28;20052;-83
2023/05/19 08:22:21;;;;;;;6.25;2.15;;;;;;;14.71;51.82;100475.78;5005384;28;20049;-84
2023/05/19 08:24:48;;;;;;;4.32;1.85;;;;;;;14.61;52.02;100465.09;4994512;28;20044;-85
2023/05/19 08:27:15;;;;;;;4.63;2.15;;;;;;;14.61;51.75;100453.59;5012094;28;20048;-84
2023/05/19 08:29:42;;;;;;;5.28;2.10;;;;;;;14.67;52.42;100459.16;4995344;28;20045;-84
2023/05/19 08:32:09;;;;;;;4.72;2.05;;;;;;;14.67;52.55;100450.31;5010949;28;20127;-84
2023/05/19 08:34:38;;;;;;;3.90;2.10;;;;;;;14.74;52.39;100454.09;5015509;28;20049;-85
2023/05/19 08:37:06;;;;;;;7.53;2.30;;;;;;;14.83;51.13;100458.53;5025885;28;20132;-84
2023/05/19 08:39:33;;;;;;;4.32;1.88;;;;;;;14.78;51.68;100452.78;5025787;28;20492;-84
2023/05/19 08:42:01;;;;;;;8.27;2.05;;;;;;;14.85;50.78;100453.03;5010249;28;20331;-85
2023/05/19 08:44:29;;;;;;;5.15;2.17;;;;;;;14.81;50.92;100444.50;5013117;28;20051;-85
2023/05/19 08:47:00;;;;;;;7.80;2.10;;;;;;;14.79;51.21;100448.31;5013008;28;20059;-84
2023/05/19 08:49:27;;;;;;;6.55;2.58;;;;;;;14.78;51.10;100436.75;5011178;28;20068;-84
2023/05/19 08:52:12;;;;;;;4.68;1.95;;;;;;;14.77;50.89;100427.88;5010964;28;20048;-84
2023/05/19 08:54:47;;;;;;;9.57;2.42;;;;;;;14.81;50.80;100430.25;5041318;28;20045;-84
2023/05/19 08:57:13;;;;;;;4.38;1.92;;;;;;;14.83;51.03;100428.28;5007466;28;20075;-84
2023/05/19 08:59:42;;;;;;;6.18;2.13;;;;;;;14.86;51.07;100426.16;5026586;28;20098;-84
2023/05/19 09:02:10;;;;;;;5.97;2.53;;;;;;;14.93;50.92;100429.94;5016267;28;20168;-84
2023/05/19 09:04:37;;;;;;;8.20;2.17;;;;;;;14.89;50.43;100420.53;5025225;28;20076;-83
2023/05/19 09:07:05;;;;;;;5.00;1.73;;;;;;;14.92;50.74;100417.53;5021866;28;20040;-84
2023/05/19 09:09:31;;;;;;;4.50;1.73;;;;;;;14.95;50.48;100422.59;4999242;28;20051;-84
2023/05/19 09:11:58;;;;;;;10.02;2.40;;;;;;;14.99;49.84;100433.84;5007446;28;20064;-83
2023/05/19 09:14:25;;;;;;;4.68;2.13;;;;;;;15.05;49.19;100421.69;4998027;28;20945;-84
2023/05/19 09:16:52;;;;;;;6.55;2.00;;;;;;;15.13;49.53;100421.78;5032978;28;20053;-84
2023/05/19 09:19:20;;;;;;;8.13;2.53;;;;;;;15.23;49.14;100419.03;5009694;28;20124;-84
2023/05/19 09:21:58;;;;;;;6.38;2.10;;;;;;;15.11;48.28;100424.63;5001769;28;20044;-83
2023/05/19 09:24:25;;;;;;;4.75;1.92;;;;;;;15.16;49.32;100413.44;4999977;28;20095;-83
2023/05/19 09:26:55;;;;;;;5.63;2.38;;;;;;;15.19;50.13;100419.34;5021149;28;20116;-84
2023/05/19 09:29:25;;;;;;;7.10;2.60;;;;;;;15.22;49.55;100412.84;5008525;28;20440;-83
2023/05/19 09:31:53;;;;;;;4.43;2.15;;;;;;;15.33;49.70;100420.66;5023407;28;20603;-83
2023/05/19 09:34:23;;;;;;;11.18;2.80;;;;;;;15.23;49.44;100419.88;5002951;28;20099;-83
2023/05/19 09:36:52;;;;;;;7.07;2.20;;;;;;;15.29;49.42;100403.22;5026210;28;20124;-83
2023/05/19 09:39:20;;;;;;;6.00;2.10;;;;;;;15.33;49.08;100409.09;5013128;28;20052;-83
2023/05/19 09:41:51;;;;;;;5.78;2.10;;;;;;;15.28;49.26;100412.22;5004590;28;20056;-84
2023/05/19 09:44:29;;;;;;;5.55;2.78;;;;;;;15.28;49.00;100417.59;5021465;28;20168;-84
2023/05/19 09:46:57;;;;;;;11.02;2.97;;;;;;;15.37;49.66;100403.31;5042745;28;20073;-84
2023/05/19 09:49:29;;;;;;;7.10;2.13;;;;;;;15.44;50.44;100414.22;4981063;28;20107;-83
2023/05/19 09:51:56;;;;;;;6.20;2.28;;;;;;;15.53;49.61;100399.94;5015050;28;20045;-84
2023/05/19 09:54:24;;;;;;;6.00;2.25;;;;;;;15.61;49.71;100401.84;5008041;28;20041;-84
2023/05/19 09:56:58;;;;;;;7.43;2.30;;;;;;;15.58;49.79;100391.44;5009917;28;20132;-84
2023/05/19 09:59:26;;;;;;;7.57;2.08;;;;;;;15.61;49.36;100405.34;5022798;28;20116;-84
2023/05/19 10:01:58;;;;;;;8.43;2.25;;;;;;;15.69;49.46;100398.38;4992817;28;20052;-83
2023/05/19 10:04:26;;;;;;;11.60;2.72;;;;;;;15.68;50.19;100389.50;5001511;28;20478;-84
2023/05/19 10:06:54;;;;;;;6.78;2.30;;;;;;;15.71;49.83;100394.59;5021153;28;20060;-83
2023/05/19 10:09:23;;;;;;;7.15;2.78;;;;;;;15.70;49.78;100408.97;5006260;28;20048;-84
2023/05/19 10:11:52;;;;;;;6.28;2.80;;;;;;;15.62;49.94;100392.78;5012087;28;20041;-84
2023/05/19 10:14:26;;;;;;;7.13;2.40;;;;;;;15.56;50.80;100396.09;5024174;28;20107;-83
2023/05/19 10:16:54;;;;;;;7.10;2.28;;;;;;;15.59;51.14;100385.09;5009398;28;20045;-84
2023/05/19 10:19:23;;;;;;;5.50;3.13;;;;;;;15.61;50.73;100391.97;5009678;28;20041;-84
2023/05/19 10:21:51;;;;;;;5.60;2.30;;;;;;;15.60;50.35;100390.28;5006955;28;20098;-84
2023/05/19 10:24:18;;;;;;;5.82;2.40;;;;;;;15.67;50.62;100384.31;4979483;28;20478;-84
2023/05/19 10:26:52;;;;;;;11.35;2.95;;;;;;;15.67;51.02;100381.63;4989463;28;20044;-85
2023/05/19 10:29:22;;;;;;;7.60;2.85;;;;;;;15.64;50.55;100385.47;5008198;28;20116;-84
2023/05/19 10:31:49;;;;;;;6.72;2.90;;;;;;;15.61;50.92;100402.66;5024909;28;20048;-83
2023/05/19 10:34:53;;;;;;;8.10;3.08;;;;;;;15.54;50.95;100380.19;5007777;28;20118;-84
2023/05/19 10:37:58;;;;;;;3.78;2.45;;;;;;;15.59;51.23;100377.88;5004600;28;20060;-85
2023/05/19 10:41:02;;;;;;;4.82;2.33;;;;;;;15.62;51.78;100382.94;4966449;28;20071;-84
2023/05/19 10:43:48;;;;;;;5.22;2.63;;;;;;;15.76;51.81;100376.22;5040823;28;20060;-84
2023/05/19 10:46:15;;;;;;;5.53;2.60;;;;;;;15.80;51.97;100392.81;5010223;28;20041;-85
2023/05/19 10:48:45;;;;;;;4.93;2.58;;;;;;;15.81;50.77;100373.91;5025447;28;20075;-84
2023/05/19 10:51:13;;;;;;;7.32;2.95;;;;;;;15.83;51.23;100388.00;5022988;28;20060;-85
2023/05/19 10:53:45;;;;;;;6.40;2.92;;;;;;;15.81;51.43;100376.59;5005066;28;20037;-84
2023/05/19 10:56:31;;;;;;;4.45;2.63;;;;;;;15.79;50.85;100386.59;5023462;28;20044;-85
2023/05/19 10:58:59;;;;;;;10.07;3.47;;;;;;;15.89;51.58;100370.44;4997249;28;20045;-85
2023/05/19 11:01:36;;;;;;;6.65;2.90;;;;;;;15.86;51.98;100375.28;5009675;28;20662;-85
2023/05/19 11:04:10;;;;;;;9.35;2.97;;;;;;;15.88;51.83;100370.63;5035408;28;20048;-85
2023/05/19 11:06:39;;;;;;;8.52;2.55;;;;;;;15.89;51.87;100373.13;5020847;28;20081;-85
2023/05/19 11:09:19;;;;;;;3.70;2.45;;;;;;;15.89;51.28;100372.28;5024390;28;20504;-85
2023/05/19 11:12:03;;;;;;;7.72;2.97;;;;;;;15.92;51.26;100377.31;5025374;28;20037;-87
2023/05/19 11:14:31;;;;;;;6.53;2.63;;;;;;;15.88;51.49;100373.31;5023267;28;20416;-85
2023/05/19 11:16:58;;;;;;;7.32;2.53;;;;;;;15.85;51.72;100371.78;5027217;28;20044;-85
2023/05/19 11:19:29;;;;;;;7.55;2.75;;;;;;;15.87;51.45;100376.97;4996767;28;20127;-86
2023/05/19 11:22:10;;;;;;;8.75;3.10;;;;;;;15.76;51.29;100370.03;5011943;28;20056;-83
2023/05/19 11:24:45;;;;;;;6.35;2.40;;;;;;;15.84;51.97;100367.41;5006858;28;20053;-83
2023/05/19 11:27:26;;;;;;;4.10;2.40;;;;;;;15.81;50.95;100378.44;5029723;28;20051;-84
2023/05/19 11:29:55;;;;;;;5.00;2.90;;;;;;;15.83;51.97;100366.56;5029040;28;20087;-84
2023/05/19 11:32:25;;;;;;;6.97;3.08;;;;;;;15.84;51.74;100368.22;5009385;28;20400;-83
2023/05/19 11:34:54;;;;;;;5.55;2.88;;;;;;;15.83;52.07;100369.25;5011103;28;20056;-84
2023/05/19 11:37:21;;;;;;;7.93;3.03;;;;;;;15.84;52.04;100367.41;4993976;28;20510;-84